createdAt,value
2019-05-25T00:00:06.757Z,12.95
2019-05-25T00:01:06.731Z,12.95
2019-05-25T00:02:06.709Z,13.03
2019-05-25T00:03:06.746Z,12.97
2019-05-25T00:04:06.671Z,13.12
2019-05-25T00:05:06.653Z,13.04
2019-05-25T00:06:06.631Z,13.07
2019-05-25T00:07:06.619Z,13.05
2019-05-25T00:08:06.594Z,12.92
2019-05-25T00:09:06.575Z,13.05
2019-05-25T00:10:06.563Z,13.05
2019-05-25T00:11:06.533Z,13.07
2019-05-25T00:12:06.517Z,13.00
2019-05-25T00:13:06.513Z,12.95
2019-05-25T00:14:06.494Z,12.92
2019-05-25T00:15:06.458Z,13.05
2019-05-25T00:16:06.451Z,13.08
2019-05-25T00:17:06.419Z,12.96
2019-05-25T00:18:06.405Z,12.95
2019-05-25T00:19:06.382Z,12.92
2019-05-25T00:20:06.359Z,13.04
2019-05-25T00:21:06.341Z,13.05
2019-05-25T00:22:06.321Z,12.92
2019-05-25T00:23:06.317Z,12.96
2019-05-25T00:24:12.226Z,12.93
2019-05-25T00:25:06.263Z,12.82
2019-05-25T00:26:06.254Z,12.78
2019-05-25T00:27:06.225Z,12.85
2019-05-25T00:28:06.211Z,12.79
2019-05-25T00:29:06.188Z,12.72
2019-05-25T00:30:06.169Z,12.68
2019-05-25T00:31:06.146Z,12.68
2019-05-25T00:32:06.128Z,12.60
2019-05-25T00:33:06.105Z,12.53
2019-05-25T00:34:06.087Z,12.47
2019-05-25T00:35:06.067Z,12.53
2019-05-25T00:36:06.051Z,12.54
2019-05-25T00:37:06.030Z,12.52
2019-05-25T00:38:06.062Z,12.53
2019-05-25T00:39:05.998Z,12.56
2019-05-25T00:40:05.980Z,12.56
2019-05-25T00:41:05.955Z,12.62
2019-05-25T00:42:05.935Z,12.60
2019-05-25T00:43:05.931Z,12.64
2019-05-25T00:44:05.894Z,12.72
2019-05-25T00:45:05.873Z,12.79
2019-05-25T00:46:05.862Z,12.79
2019-05-25T00:47:05.838Z,12.95
2019-05-25T00:48:05.822Z,13.08
2019-05-25T00:49:05.796Z,13.03
2019-05-25T00:50:05.777Z,13.14
2019-05-25T00:51:05.759Z,13.15
2019-05-25T00:52:05.740Z,13.19
2019-05-25T00:53:05.720Z,13.23
2019-05-25T00:54:05.706Z,13.22
2019-05-25T00:55:05.683Z,13.23
2019-05-25T00:56:05.665Z,13.22
2019-05-25T00:57:05.647Z,13.26
2019-05-25T00:58:05.620Z,13.30
2019-05-25T00:59:05.602Z,13.33
2019-05-25T01:00:05.585Z,13.36
2019-05-25T01:01:05.736Z,13.29
2019-05-25T01:02:05.547Z,13.25
2019-05-25T01:03:05.528Z,13.17
2019-05-25T01:04:05.508Z,13.17
2019-05-25T01:05:05.487Z,13.12
2019-05-25T01:06:05.468Z,13.15
2019-05-25T01:07:05.447Z,13.04
2019-05-25T01:08:05.435Z,13.04
2019-05-25T01:09:05.412Z,12.87
2019-05-25T01:10:05.394Z,12.97
2019-05-25T01:11:05.381Z,13.01
2019-05-25T01:12:05.355Z,13.01
2019-05-25T01:13:05.332Z,12.79
2019-05-25T01:14:05.319Z,12.74
2019-05-25T01:15:05.296Z,12.85
2019-05-25T01:16:05.281Z,12.82
2019-05-25T01:17:05.259Z,12.86
2019-05-25T01:18:05.234Z,12.85
2019-05-25T01:19:05.214Z,12.83
2019-05-25T01:20:05.206Z,12.85
2019-05-25T01:21:05.176Z,12.87
2019-05-25T01:22:05.164Z,12.82
2019-05-25T01:23:05.139Z,12.85
2019-05-25T01:24:05.119Z,12.86
2019-05-25T01:25:05.099Z,12.85
2019-05-25T01:26:05.077Z,12.86
2019-05-25T01:27:05.059Z,12.85
2019-05-25T01:28:05.043Z,12.87
2019-05-25T01:29:05.025Z,12.89
2019-05-25T01:30:04.999Z,12.83
2019-05-25T01:31:04.981Z,12.85
2019-05-25T01:32:04.960Z,12.75
2019-05-25T01:33:04.943Z,12.82
2019-05-25T01:34:04.928Z,12.86
2019-05-25T01:35:04.913Z,12.82
2019-05-25T01:36:04.883Z,12.78
2019-05-25T01:37:04.861Z,12.79
2019-05-25T01:38:04.843Z,12.83
2019-05-25T01:39:04.822Z,12.65
2019-05-25T01:40:04.806Z,12.34
2019-05-25T01:41:04.784Z,12.14
2019-05-25T01:42:04.767Z,11.94
2019-05-25T01:43:04.744Z,11.91
2019-05-25T01:44:04.725Z,11.64
2019-05-25T01:45:04.711Z,11.58
2019-05-25T01:46:04.691Z,11.49
2019-05-25T01:47:04.674Z,11.52
2019-05-25T01:48:04.706Z,11.44
2019-05-25T01:49:04.632Z,11.44
2019-05-25T01:50:04.610Z,11.39
2019-05-25T01:51:04.587Z,11.39
2019-05-25T01:52:04.570Z,11.36
2019-05-25T01:53:04.547Z,11.24
2019-05-25T01:54:04.532Z,11.36
2019-05-25T01:55:04.508Z,11.42
2019-05-25T01:56:04.491Z,11.36
2019-05-25T01:57:04.471Z,11.47
2019-05-25T01:58:04.454Z,11.46
2019-05-25T01:59:04.437Z,11.39
2019-05-25T02:00:04.423Z,11.49
2019-05-25T02:01:04.391Z,11.57
2019-05-25T02:02:04.378Z,11.57
2019-05-25T02:03:04.355Z,11.58
2019-05-25T02:04:04.332Z,11.46
2019-05-25T02:05:04.311Z,11.46
2019-05-25T02:06:04.293Z,11.46
2019-05-25T02:07:04.272Z,11.44
2019-05-25T02:08:04.254Z,11.44
2019-05-25T02:09:04.238Z,11.47
2019-05-25T02:10:04.220Z,11.46
2019-05-25T02:11:04.195Z,11.43
2019-05-25T02:12:04.180Z,11.49
2019-05-25T02:13:04.153Z,11.42
2019-05-25T02:14:04.134Z,11.44
2019-05-25T02:15:04.115Z,11.47
2019-05-25T02:16:04.101Z,11.46
2019-05-25T02:17:04.076Z,11.43
2019-05-25T02:18:04.057Z,11.43
2019-05-25T02:19:04.034Z,11.43
2019-05-25T02:20:04.033Z,11.36
2019-05-25T02:21:03.999Z,11.37
2019-05-25T02:22:03.981Z,11.33
2019-05-25T02:23:03.958Z,11.43
2019-05-25T02:24:03.945Z,11.36
2019-05-25T02:25:17.166Z,11.36
2019-05-25T02:26:03.896Z,11.40
2019-05-25T02:27:03.878Z,11.35
2019-05-25T02:28:03.862Z,11.47
2019-05-25T02:29:03.848Z,11.46
2019-05-25T02:30:03.847Z,11.44
2019-05-25T02:31:03.795Z,11.43
2019-05-25T02:32:03.773Z,11.46
2019-05-25T02:33:03.755Z,11.36
2019-05-25T02:34:03.743Z,11.44
2019-05-25T02:35:03.716Z,11.47
2019-05-25T02:36:03.696Z,11.47
2019-05-25T02:37:03.679Z,11.52
2019-05-25T02:38:03.659Z,11.51
2019-05-25T02:39:03.639Z,11.49
2019-05-25T02:40:03.618Z,11.43
2019-05-25T02:41:03.597Z,11.49
2019-05-25T02:42:03.576Z,11.40
2019-05-25T02:43:03.558Z,11.44
2019-05-25T02:44:03.537Z,11.43
2019-05-25T02:45:03.519Z,11.47
2019-05-25T02:46:03.496Z,11.49
2019-05-25T02:47:03.514Z,11.43
2019-05-25T02:48:03.480Z,11.35
2019-05-25T02:49:03.436Z,11.32
2019-05-25T02:50:03.415Z,11.33
2019-05-25T02:51:03.396Z,11.33
2019-05-25T02:52:03.378Z,11.39
2019-05-25T02:53:03.358Z,11.37
2019-05-25T02:54:03.335Z,11.42
2019-05-25T02:55:03.321Z,11.37
2019-05-25T02:56:03.297Z,11.32
2019-05-25T02:57:03.277Z,11.32
2019-05-25T02:58:03.267Z,11.37
2019-05-25T02:59:03.247Z,11.33
2019-05-25T03:00:03.220Z,11.39
2019-05-25T03:01:03.195Z,11.39
2019-05-25T03:02:03.173Z,11.35
2019-05-25T03:03:03.163Z,11.28
2019-05-25T03:04:03.145Z,11.35
2019-05-25T03:05:03.115Z,11.35
2019-05-25T03:06:03.559Z,11.40
2019-05-25T03:07:03.077Z,11.46
2019-05-25T03:08:03.061Z,11.35
2019-05-25T03:09:03.032Z,11.39
2019-05-25T03:10:03.029Z,11.44
2019-05-25T03:11:02.992Z,11.42
2019-05-25T03:12:02.974Z,11.44
2019-05-25T03:13:02.954Z,11.44
2019-05-25T03:14:02.933Z,11.51
2019-05-25T03:15:03.062Z,11.51
2019-05-25T03:16:02.894Z,11.51
2019-05-25T03:17:02.874Z,11.47
2019-05-25T03:18:02.850Z,11.51
2019-05-25T03:19:02.832Z,11.49
2019-05-25T03:20:02.810Z,11.44
2019-05-25T03:21:02.795Z,11.52
2019-05-25T03:22:02.784Z,11.58
2019-05-25T03:23:02.762Z,11.47
2019-05-25T03:24:02.739Z,11.51
2019-05-25T03:25:02.709Z,11.61
2019-05-25T03:26:02.690Z,11.60
2019-05-25T03:27:02.671Z,11.70
2019-05-25T03:28:02.649Z,11.57
2019-05-25T03:29:02.631Z,11.61
2019-05-25T03:30:02.623Z,11.64
2019-05-25T03:31:02.591Z,11.60
2019-05-25T03:32:02.569Z,11.64
2019-05-25T03:33:02.564Z,11.62
2019-05-25T03:34:02.529Z,11.75
2019-05-25T03:35:02.516Z,11.69
2019-05-25T03:36:02.490Z,11.72
2019-05-25T03:37:02.466Z,11.73
2019-05-25T03:38:02.449Z,11.57
2019-05-25T03:39:02.427Z,11.73
2019-05-25T03:40:02.407Z,11.76
2019-05-25T03:41:02.389Z,11.82
2019-05-25T03:42:02.375Z,11.75
2019-05-25T03:43:02.344Z,11.79
2019-05-25T03:44:02.327Z,11.90
2019-05-25T03:45:02.314Z,12.04
2019-05-25T03:46:02.287Z,11.95
2019-05-25T03:47:02.270Z,11.88
2019-05-25T03:48:02.244Z,11.94
2019-05-25T03:49:02.225Z,11.95
2019-05-25T03:50:02.210Z,12.01
2019-05-25T03:51:02.182Z,11.86
2019-05-25T03:52:02.174Z,11.83
2019-05-25T03:53:02.142Z,11.88
2019-05-25T03:54:02.124Z,11.94
2019-05-25T03:55:02.114Z,12.02
2019-05-25T03:56:05.920Z,11.99
2019-05-25T03:57:02.064Z,11.96
2019-05-25T03:58:02.046Z,11.85
2019-05-25T03:59:02.021Z,11.96
2019-05-25T04:00:02.004Z,11.88
2019-05-25T04:01:01.983Z,11.96
2019-05-25T04:02:01.962Z,12.02
2019-05-25T04:03:01.943Z,11.90
2019-05-25T04:04:01.931Z,11.88
2019-05-25T04:05:02.083Z,11.91
2019-05-25T04:06:01.883Z,12.02
2019-05-25T04:07:01.861Z,12.09
2019-05-25T04:08:01.844Z,12.09
2019-05-25T04:09:01.821Z,12.09
2019-05-25T04:10:01.980Z,12.20
2019-05-25T04:11:01.789Z,12.19
2019-05-25T04:12:01.761Z,12.37
2019-05-25T04:13:01.742Z,12.45
2019-05-25T04:14:01.720Z,12.46
2019-05-25T04:15:01.701Z,12.50
2019-05-25T04:16:01.681Z,12.53
2019-05-25T04:17:01.664Z,12.57
2019-05-25T04:18:01.641Z,12.57
2019-05-25T04:19:01.621Z,12.72
2019-05-25T04:20:01.601Z,12.75
2019-05-25T04:21:01.580Z,12.71
2019-05-25T04:22:01.562Z,12.67
2019-05-25T04:23:01.549Z,12.72
2019-05-25T04:24:01.523Z,12.75
2019-05-25T04:25:01.500Z,12.74
2019-05-25T04:26:01.480Z,12.75
2019-05-25T04:27:01.459Z,12.75
2019-05-25T04:28:01.451Z,12.72
2019-05-25T04:29:01.425Z,12.71
2019-05-25T04:30:01.407Z,12.75
2019-05-25T04:31:01.378Z,12.79
2019-05-25T04:32:01.358Z,12.71
2019-05-25T04:33:01.341Z,12.68
2019-05-25T04:34:01.319Z,12.67
2019-05-25T04:35:01.515Z,12.72
2019-05-25T04:36:01.280Z,12.70
2019-05-25T04:37:01.260Z,12.72
2019-05-25T04:38:01.241Z,12.79
2019-05-25T04:39:01.241Z,12.70
2019-05-25T04:40:01.200Z,12.71
2019-05-25T04:41:01.187Z,12.75
2019-05-25T04:42:01.161Z,12.75
2019-05-25T04:43:01.141Z,12.78
2019-05-25T04:44:01.119Z,12.86
2019-05-25T04:45:01.105Z,12.78
2019-05-25T04:46:01.082Z,12.90
2019-05-25T04:47:01.062Z,12.95
2019-05-25T04:48:01.042Z,12.95
2019-05-25T04:49:01.020Z,12.92
2019-05-25T04:50:01.000Z,12.90
2019-05-25T04:51:00.982Z,12.97
2019-05-25T04:52:00.962Z,12.93
2019-05-25T04:53:00.941Z,12.82
2019-05-25T04:54:00.927Z,12.82
2019-05-25T04:55:00.913Z,12.86
2019-05-25T04:56:00.880Z,12.85
2019-05-25T04:57:00.893Z,12.85
2019-05-25T04:58:00.845Z,12.95
2019-05-25T04:59:00.826Z,13.00
2019-05-25T05:00:00.863Z,12.95
2019-05-25T05:01:00.781Z,12.92
2019-05-25T05:02:00.765Z,13.00
2019-05-25T05:03:00.745Z,12.87
2019-05-25T05:04:00.727Z,12.93
2019-05-25T05:05:00.702Z,13.04
2019-05-25T05:06:00.709Z,13.03
2019-05-25T05:07:00.663Z,13.04
2019-05-25T05:08:00.644Z,13.17
2019-05-25T05:09:00.622Z,13.07
2019-05-25T05:10:02.923Z,13.11
2019-05-25T05:11:00.583Z,13.15
2019-05-25T05:12:00.566Z,13.11
2019-05-25T05:13:00.542Z,13.01
2019-05-25T05:14:00.526Z,13.08
2019-05-25T05:15:00.506Z,13.03
2019-05-25T05:16:00.485Z,13.04
2019-05-25T05:17:00.471Z,12.95
2019-05-25T05:18:00.444Z,13.04
2019-05-25T05:19:00.425Z,13.03
2019-05-25T05:20:00.403Z,13.00
2019-05-25T05:21:00.390Z,13.15
2019-05-25T05:22:00.364Z,13.15
2019-05-25T05:23:00.344Z,13.12
2019-05-25T05:24:00.324Z,13.20
2019-05-25T05:25:00.308Z,13.17
2019-05-25T05:26:00.287Z,13.28
2019-05-25T05:27:00.268Z,13.26
2019-05-25T05:28:00.246Z,13.39
2019-05-25T05:29:00.238Z,13.28
2019-05-25T05:30:00.207Z,13.39
2019-05-25T05:31:00.191Z,13.32
2019-05-25T05:32:00.167Z,13.45
2019-05-25T05:33:00.153Z,13.42
2019-05-25T05:34:00.129Z,13.33
2019-05-25T05:35:00.108Z,13.36
2019-05-25T05:36:00.090Z,13.26
2019-05-25T05:37:00.068Z,13.20
2019-05-25T05:38:00.052Z,13.23
2019-05-25T05:39:00.031Z,13.14
2019-05-25T05:40:00.013Z,13.11
2019-05-25T05:40:59.993Z,13.14
2019-05-25T05:41:59.977Z,13.11
2019-05-25T05:42:59.951Z,13.07
2019-05-25T05:43:59.932Z,13.08
2019-05-25T05:44:59.909Z,13.04
2019-05-25T05:45:59.903Z,13.03
2019-05-25T05:46:59.987Z,12.92
2019-05-25T05:47:59.853Z,13.00
2019-05-25T05:48:59.836Z,12.96
2019-05-25T05:49:59.812Z,12.97
2019-05-25T05:50:59.799Z,12.93
2019-05-25T05:51:59.785Z,13.01
2019-05-25T05:52:59.763Z,12.92
2019-05-25T05:53:59.736Z,12.89
2019-05-25T05:54:59.715Z,12.86
2019-05-25T05:55:59.695Z,12.86
2019-05-25T05:57:11.604Z,13.01
2019-05-25T05:57:59.655Z,12.95
2019-05-25T05:58:59.637Z,12.96
2019-05-25T05:59:59.617Z,12.95
2019-05-25T06:00:59.603Z,13.00
2019-05-25T06:01:59.574Z,12.93
2019-05-25T06:02:59.559Z,12.97
2019-05-25T06:03:59.535Z,13.03
2019-05-25T06:04:59.515Z,13.01
2019-05-25T06:05:59.498Z,13.03
2019-05-25T06:06:59.481Z,13.08
2019-05-25T06:07:59.466Z,13.03
2019-05-25T06:08:59.446Z,13.03
2019-05-25T06:09:59.417Z,13.04
2019-05-25T06:10:59.409Z,13.15
2019-05-25T06:11:59.378Z,13.17
2019-05-25T06:12:59.366Z,13.12
2019-05-25T06:13:59.339Z,13.22
2019-05-25T06:14:59.320Z,13.25
2019-05-25T06:15:59.309Z,13.20
2019-05-25T06:16:59.304Z,13.20
2019-05-25T06:17:59.261Z,13.08
2019-05-25T06:18:59.239Z,13.11
2019-05-25T06:19:59.220Z,13.19
2019-05-25T06:20:59.205Z,13.22
2019-05-25T06:21:59.185Z,13.30
2019-05-25T06:22:59.165Z,13.23
2019-05-25T06:23:59.140Z,13.20
2019-05-25T06:24:59.121Z,13.08
2019-05-25T06:25:59.105Z,13.07
2019-05-25T06:26:59.086Z,13.20
2019-05-25T06:27:59.063Z,13.19
2019-05-25T06:28:59.040Z,13.22
2019-05-25T06:29:59.021Z,13.25
2019-05-25T06:30:58.998Z,13.22
2019-05-25T06:31:58.982Z,13.19
2019-05-25T06:32:58.992Z,13.22
2019-05-25T06:33:58.940Z,13.19
2019-05-25T06:34:58.918Z,13.20
2019-05-25T06:35:58.903Z,13.25
2019-05-25T06:36:58.886Z,13.32
2019-05-25T06:37:58.867Z,13.32
2019-05-25T06:38:58.849Z,13.41
2019-05-25T06:39:58.825Z,13.42
2019-05-25T06:40:58.814Z,13.46
2019-05-25T06:41:58.782Z,13.46
2019-05-25T06:42:58.774Z,13.45
2019-05-25T06:43:58.744Z,13.42
2019-05-25T06:44:58.723Z,13.45
2019-05-25T06:45:58.704Z,13.57
2019-05-25T06:46:58.691Z,13.55
2019-05-25T06:47:58.665Z,13.46
2019-05-25T06:48:58.646Z,13.62
2019-05-25T06:49:58.637Z,13.67
2019-05-25T06:50:58.608Z,13.67
2019-05-25T06:51:58.585Z,13.82
2019-05-25T06:52:58.567Z,13.84
2019-05-25T06:53:58.554Z,13.84
2019-05-25T06:54:58.525Z,13.91
2019-05-25T06:55:58.511Z,13.88
2019-05-25T06:56:58.508Z,13.95
2019-05-25T06:57:58.471Z,13.95
2019-05-25T06:58:58.447Z,14.03
2019-05-25T06:59:58.430Z,14.06
2019-05-25T07:00:58.411Z,14.06
2019-05-25T07:01:58.389Z,14.03
2019-05-25T07:02:58.370Z,13.96
2019-05-25T07:03:58.351Z,13.84
2019-05-25T07:04:58.332Z,13.71
2019-05-25T07:05:58.317Z,13.75
2019-05-25T07:06:58.296Z,13.84
2019-05-25T07:07:58.282Z,13.67
2019-05-25T07:08:58.251Z,13.77
2019-05-25T07:09:58.241Z,13.62
2019-05-25T07:10:58.213Z,13.54
2019-05-25T07:11:58.193Z,13.57
2019-05-25T07:12:58.184Z,13.60
2019-05-25T07:13:58.154Z,13.66
2019-05-25T07:14:58.142Z,13.71
2019-05-25T07:15:58.128Z,13.78
2019-05-25T07:16:58.099Z,13.64
2019-05-25T07:17:58.074Z,13.67
2019-05-25T07:18:58.058Z,13.66
2019-05-25T07:19:58.036Z,13.64
2019-05-25T07:20:58.015Z,13.73
2019-05-25T07:21:58.000Z,13.84
2019-05-25T07:22:57.980Z,13.73
2019-05-25T07:23:57.957Z,13.67
2019-05-25T07:24:57.934Z,13.67
2019-05-25T07:25:57.929Z,13.73
2019-05-25T07:26:57.897Z,13.84
2019-05-25T07:27:59.987Z,13.95
2019-05-25T07:28:57.857Z,13.99
2019-05-25T07:29:57.836Z,14.06
2019-05-25T07:30:57.821Z,14.00
2019-05-25T07:31:57.799Z,14.04
2019-05-25T07:32:57.778Z,14.14
2019-05-25T07:33:57.762Z,14.12
2019-05-25T07:34:57.740Z,14.02
2019-05-25T07:35:57.721Z,14.14
2019-05-25T07:36:57.709Z,14.06
2019-05-25T07:37:57.681Z,13.99
2019-05-25T07:38:57.659Z,14.03
2019-05-25T07:39:57.659Z,14.12
2019-05-25T07:40:57.630Z,14.04
2019-05-25T07:41:57.598Z,13.99
2019-05-25T07:42:57.579Z,14.03
2019-05-25T07:43:57.566Z,14.15
2019-05-25T07:44:57.539Z,14.22
2019-05-25T07:45:57.520Z,14.36
2019-05-25T07:46:57.499Z,14.46
2019-05-25T07:47:57.486Z,14.61
2019-05-25T07:48:57.461Z,14.60
2019-05-25T07:49:57.442Z,14.57
2019-05-25T07:50:57.425Z,14.51
2019-05-25T07:51:57.405Z,14.42
2019-05-25T07:52:57.393Z,14.60
2019-05-25T07:53:57.364Z,14.52
2019-05-25T07:54:57.346Z,14.40
2019-05-25T07:55:57.328Z,14.42
2019-05-25T07:56:57.303Z,14.50
2019-05-25T07:57:57.285Z,14.69
2019-05-25T07:58:57.265Z,14.68
2019-05-25T07:59:57.249Z,14.61
2019-05-25T08:00:57.225Z,14.62
2019-05-25T08:01:57.213Z,14.55
2019-05-25T08:02:57.192Z,14.43
2019-05-25T08:03:57.170Z,14.43
2019-05-25T08:04:57.147Z,14.54
2019-05-25T08:05:57.132Z,14.70
2019-05-25T08:06:57.109Z,14.86
2019-05-25T08:07:57.090Z,14.91
2019-05-25T08:08:57.076Z,14.92
2019-05-25T08:09:57.057Z,15.02
2019-05-25T08:10:57.035Z,15.03
2019-05-25T08:11:57.014Z,14.94
2019-05-25T08:12:56.993Z,14.94
2019-05-25T08:13:56.981Z,15.17
2019-05-25T08:14:56.960Z,15.41
2019-05-25T08:15:56.936Z,15.38
2019-05-25T08:16:56.920Z,15.38
2019-05-25T08:17:56.898Z,15.25
2019-05-25T08:18:56.879Z,15.17
2019-05-25T08:19:56.859Z,15.19
2019-05-25T08:20:56.843Z,15.16
2019-05-25T08:21:56.828Z,15.35
2019-05-25T08:22:56.804Z,15.32
2019-05-25T08:23:56.825Z,15.25
2019-05-25T08:24:56.777Z,15.38
2019-05-25T08:25:56.752Z,15.56
2019-05-25T08:26:56.727Z,15.74
2019-05-25T08:27:56.708Z,15.65
2019-05-25T08:28:56.699Z,15.67
2019-05-25T08:29:56.665Z,15.46
2019-05-25T08:30:56.650Z,15.67
2019-05-25T08:31:56.633Z,15.50
2019-05-25T08:32:56.615Z,15.57
2019-05-25T08:33:56.618Z,15.56
2019-05-25T08:34:56.586Z,15.57
2019-05-25T08:35:56.678Z,15.72
2019-05-25T08:36:56.534Z,15.76
2019-05-25T08:37:56.514Z,15.64
2019-05-25T08:38:56.542Z,15.56
2019-05-25T08:39:56.483Z,15.47
2019-05-25T08:40:56.459Z,15.28
2019-05-25T08:41:56.446Z,15.25
2019-05-25T08:42:56.431Z,15.39
2019-05-25T08:43:56.405Z,15.21
2019-05-25T08:44:56.383Z,15.07
2019-05-25T08:45:56.378Z,15.35
2019-05-25T08:46:56.348Z,15.44
2019-05-25T08:47:57.399Z,15.29
2019-05-25T08:48:56.309Z,15.34
2019-05-25T08:49:56.311Z,15.29
2019-05-25T08:50:59.404Z,15.39
2019-05-25T08:51:56.255Z,15.38
2019-05-25T08:52:56.235Z,15.59
2019-05-25T08:53:56.217Z,15.65
2019-05-25T08:54:56.734Z,15.60
2019-05-25T08:55:56.177Z,15.74
2019-05-25T08:56:56.201Z,15.57
2019-05-25T08:57:56.136Z,15.47
2019-05-25T08:58:56.120Z,15.44
2019-05-25T08:59:56.102Z,15.46
2019-05-25T09:00:56.093Z,15.62
2019-05-25T09:01:56.065Z,15.65
2019-05-25T09:02:56.052Z,15.60
2019-05-25T09:03:56.031Z,15.65
2019-05-25T09:04:56.018Z,15.76
2019-05-25T09:05:55.985Z,15.82
2019-05-25T09:06:55.979Z,16.08
2019-05-25T09:07:56.039Z,16.28
2019-05-25T09:08:55.933Z,16.15
2019-05-25T09:09:55.921Z,16.27
2019-05-25T09:10:55.893Z,16.42
2019-05-25T09:11:55.883Z,16.63
2019-05-25T09:12:55.856Z,16.79
2019-05-25T09:13:55.876Z,16.81
2019-05-25T09:14:55.828Z,16.81
2019-05-25T09:15:55.850Z,16.88
2019-05-25T09:16:55.786Z,17.00
2019-05-25T09:17:55.770Z,16.81
2019-05-25T09:18:55.760Z,16.57
2019-05-25T09:19:55.735Z,16.53
2019-05-25T09:20:55.717Z,16.42
2019-05-25T09:22:02.749Z,16.25
2019-05-25T09:22:55.677Z,16.25
2019-05-25T09:23:55.657Z,16.31
2019-05-25T09:24:55.638Z,16.25
2019-05-25T09:25:55.626Z,16.20
2019-05-25T09:26:55.602Z,16.12
2019-05-25T09:27:55.580Z,16.25
2019-05-25T09:29:03.891Z,16.28
2019-05-25T09:29:55.552Z,16.12
2019-05-25T09:30:55.523Z,16.25
2019-05-25T09:31:55.511Z,16.28
2019-05-25T09:32:55.489Z,16.42
2019-05-25T09:33:55.469Z,16.31
2019-05-25T09:34:55.453Z,16.08
2019-05-25T09:35:55.437Z,16.08
2019-05-25T09:36:55.422Z,16.28
2019-05-25T09:37:55.404Z,16.33
2019-05-25T09:38:55.385Z,16.49
2019-05-25T09:39:55.360Z,16.39
2019-05-25T09:40:55.344Z,16.46
2019-05-25T09:41:55.327Z,16.43
2019-05-25T09:42:55.347Z,16.48
2019-05-25T09:43:55.288Z,16.56
2019-05-25T09:44:55.273Z,16.73
2019-05-25T09:45:55.247Z,16.68
2019-05-25T09:46:55.234Z,16.50
2019-05-25T09:47:55.219Z,16.35
2019-05-25T09:48:55.220Z,16.45
2019-05-25T09:49:55.175Z,16.50
2019-05-25T09:50:55.173Z,16.46
2019-05-25T09:51:55.140Z,16.25
2019-05-25T09:52:55.118Z,16.07
2019-05-25T09:53:55.109Z,16.00
2019-05-25T09:54:55.778Z,16.11
2019-05-25T09:55:55.064Z,16.11
2019-05-25T09:56:55.058Z,16.39
2019-05-25T09:57:55.038Z,16.41
2019-05-25T09:58:55.017Z,16.45
2019-05-25T09:59:54.998Z,16.49
2019-05-25T10:00:54.981Z,16.76
2019-05-25T10:01:54.964Z,16.67
2019-05-25T10:02:54.947Z,16.78
2019-05-25T10:03:56.764Z,16.53
2019-05-25T10:04:54.901Z,16.52
2019-05-25T10:05:54.883Z,16.67
2019-05-25T10:06:54.864Z,16.66
2019-05-25T10:07:54.854Z,16.88
2019-05-25T10:08:54.841Z,17.19
2019-05-25T10:09:54.810Z,17.36
2019-05-25T10:10:54.801Z,17.46
2019-05-25T10:11:54.781Z,17.51
2019-05-25T10:12:54.756Z,17.51
2019-05-25T10:13:54.745Z,17.46
2019-05-25T10:14:54.725Z,17.54
2019-05-25T10:15:54.708Z,17.41
2019-05-25T10:16:54.689Z,17.15
2019-05-25T10:17:54.671Z,17.19
2019-05-25T10:18:54.656Z,17.34
2019-05-25T10:19:54.666Z,17.41
2019-05-25T10:20:54.624Z,17.62
2019-05-25T10:21:54.667Z,17.70
2019-05-25T10:22:54.581Z,17.87
2019-05-25T10:23:54.562Z,17.77
2019-05-25T10:24:54.544Z,17.70
2019-05-25T10:25:54.526Z,17.51
2019-05-25T10:26:54.520Z,17.41
2019-05-25T10:27:54.498Z,17.16
2019-05-25T10:28:54.472Z,16.91
2019-05-25T10:29:54.517Z,16.93
2019-05-25T10:30:54.441Z,16.89
2019-05-25T10:31:54.419Z,16.88
2019-05-25T10:32:54.403Z,16.64
2019-05-25T10:33:54.381Z,16.61
2019-05-25T10:34:54.379Z,16.70
2019-05-25T10:35:54.369Z,16.68
2019-05-25T10:36:54.391Z,16.67
2019-05-25T10:37:54.326Z,16.75
2019-05-25T10:38:54.303Z,16.79
2019-05-25T10:39:54.273Z,16.91
2019-05-25T10:40:54.255Z,17.08
2019-05-25T10:41:54.234Z,17.07
2019-05-25T10:42:54.221Z,16.91
2019-05-25T10:43:54.204Z,16.85
2019-05-25T10:44:54.180Z,16.89
2019-05-25T10:45:54.162Z,16.93
2019-05-25T10:46:54.146Z,16.83
2019-05-25T10:47:54.133Z,16.82
2019-05-25T10:48:54.108Z,16.76
2019-05-25T10:49:54.097Z,16.79
2019-05-25T10:50:54.075Z,16.70
2019-05-25T10:51:54.061Z,16.57
2019-05-25T10:52:54.064Z,16.58
2019-05-25T10:53:54.020Z,16.71
2019-05-25T10:54:54.000Z,16.71
2019-05-25T10:55:53.981Z,16.75
2019-05-25T10:56:53.962Z,16.91
2019-05-25T10:57:53.974Z,16.91
2019-05-25T10:58:53.926Z,16.97
2019-05-25T10:59:53.917Z,17.22
2019-05-25T11:00:53.888Z,17.28
2019-05-25T11:01:53.875Z,17.38
2019-05-25T11:02:53.855Z,17.43
2019-05-25T11:03:53.836Z,17.56
2019-05-25T11:04:53.824Z,17.62
2019-05-25T11:05:53.800Z,17.63
2019-05-25T11:06:53.779Z,17.63
2019-05-25T11:07:53.764Z,17.49
2019-05-25T11:08:53.743Z,17.68
2019-05-25T11:09:53.727Z,17.84
2019-05-25T11:10:53.713Z,17.89
2019-05-25T11:11:53.689Z,17.87
2019-05-25T11:12:53.689Z,17.82
2019-05-25T11:13:53.652Z,17.54
2019-05-25T11:14:53.640Z,17.41
2019-05-25T11:15:53.622Z,17.36
2019-05-25T11:16:53.614Z,17.31
2019-05-25T11:17:53.596Z,17.49
2019-05-25T11:18:53.565Z,17.36
2019-05-25T11:19:53.561Z,17.36
2019-05-25T11:20:53.536Z,17.14
2019-05-25T11:21:53.525Z,17.07
2019-05-25T11:22:53.506Z,17.08
2019-05-25T11:23:53.481Z,17.23
2019-05-25T11:24:53.458Z,17.25
2019-05-25T11:25:53.455Z,17.23
2019-05-25T11:26:53.437Z,17.16
2019-05-25T11:27:53.407Z,17.22
2019-05-25T11:28:53.487Z,17.30
2019-05-25T11:30:08.080Z,17.31
2019-05-25T11:30:53.362Z,17.48
2019-05-25T11:31:58.379Z,17.44
2019-05-25T11:32:53.321Z,17.49
2019-05-25T11:33:53.298Z,17.59
2019-05-25T11:34:53.281Z,17.72
2019-05-25T11:35:53.266Z,17.46
2019-05-25T11:36:53.254Z,17.58
2019-05-25T11:37:53.226Z,17.51
2019-05-25T11:38:53.229Z,17.44
2019-05-25T11:39:53.196Z,17.41
2019-05-25T11:40:53.173Z,17.22
2019-05-25T11:41:53.155Z,17.36
2019-05-25T11:42:53.153Z,17.43
2019-05-25T11:43:53.123Z,17.62
2019-05-25T11:44:53.107Z,17.41
2019-05-25T11:45:53.091Z,17.41
2019-05-25T11:46:53.081Z,17.40
2019-05-25T11:47:53.056Z,17.70
2019-05-25T11:48:53.043Z,17.70
2019-05-25T11:49:53.015Z,17.48
2019-05-25T11:50:52.997Z,17.43
2019-05-25T11:51:52.990Z,17.41
2019-05-25T11:52:53.018Z,17.40
2019-05-25T11:53:52.944Z,17.40
2019-05-25T11:54:52.931Z,17.40
2019-05-25T11:55:52.930Z,17.58
2019-05-25T11:56:52.890Z,17.44
2019-05-25T11:57:52.874Z,17.59
2019-05-25T11:58:52.857Z,17.52
2019-05-25T11:59:52.853Z,17.54
2019-05-25T12:00:52.826Z,17.48
2019-05-25T12:01:52.808Z,17.54
2019-05-25T12:02:52.789Z,17.46
2019-05-25T12:03:52.782Z,17.43
2019-05-25T12:04:52.753Z,17.55
2019-05-25T12:05:52.738Z,17.77
2019-05-25T12:06:52.726Z,18.02
2019-05-25T12:07:52.702Z,18.29
2019-05-25T12:08:52.750Z,18.44
2019-05-25T12:09:52.679Z,18.80
2019-05-25T12:10:52.661Z,18.69
2019-05-25T12:11:52.652Z,18.51
2019-05-25T12:12:52.615Z,18.30
2019-05-25T12:13:52.600Z,18.32
2019-05-25T12:14:52.588Z,18.62
2019-05-25T12:15:52.576Z,18.60
2019-05-25T12:16:52.548Z,18.50
2019-05-25T12:17:52.534Z,18.60
2019-05-25T12:18:52.521Z,18.65
2019-05-25T12:19:52.497Z,18.72
2019-05-25T12:20:52.479Z,19.00
2019-05-25T12:21:52.519Z,19.22
2019-05-25T12:22:52.461Z,19.23
2019-05-25T12:23:52.430Z,19.06
2019-05-25T12:24:52.424Z,18.99
2019-05-25T12:25:52.404Z,18.55
2019-05-25T12:26:52.385Z,18.14
2019-05-25T12:27:52.370Z,18.10
2019-05-25T12:28:52.350Z,18.11
2019-05-25T12:29:52.346Z,17.81
2019-05-25T12:30:52.320Z,17.72
2019-05-25T12:32:03.396Z,17.82
2019-05-25T12:32:52.286Z,17.78
2019-05-25T12:33:52.271Z,17.71
2019-05-25T12:34:52.263Z,17.78
2019-05-25T12:35:52.239Z,17.70
2019-05-25T12:36:52.220Z,17.79
2019-05-25T12:37:52.205Z,17.96
2019-05-25T12:38:52.185Z,17.82
2019-05-25T12:39:52.171Z,17.92
2019-05-25T12:40:53.842Z,17.90
2019-05-25T12:41:52.143Z,17.81
2019-05-25T12:42:52.128Z,17.84
2019-05-25T12:43:52.099Z,17.92
2019-05-25T12:44:52.083Z,17.97
2019-05-25T12:45:52.084Z,18.03
2019-05-25T12:46:52.056Z,18.15
2019-05-25T12:47:52.040Z,18.08
2019-05-25T12:48:52.016Z,18.14
2019-05-25T12:49:52.000Z,18.17
2019-05-25T12:50:51.982Z,17.96
2019-05-25T12:51:51.966Z,17.99